createdAt,value
2023-12-17T00:01:31.737Z,1.20
2023-12-17T00:04:00.195Z,0.90
2023-12-17T00:06:29.218Z,1.00
2023-12-17T00:08:57.206Z,0.50
2023-12-17T00:11:25.746Z,0.60
2023-12-17T00:13:54.667Z,1.10
2023-12-17T00:16:22.739Z,0.80
2023-12-17T00:21:19.822Z,0.90
2023-12-17T00:23:47.687Z,1.20
2023-12-17T00:26:15.930Z,1.20
2023-12-17T00:28:44.196Z,0.90
2023-12-17T00:31:12.755Z,0.80
2023-12-17T00:33:41.034Z,0.80
2023-12-17T00:36:10.087Z,0.70
2023-12-17T00:38:38.286Z,0.90
2023-12-17T00:41:06.701Z,0.80
2023-12-17T00:43:37.236Z,1.20
2023-12-17T00:46:05.686Z,1.40
2023-12-17T00:48:34.112Z,1.20
2023-12-17T00:51:03.635Z,0.80
2023-12-17T00:53:31.991Z,1.40
2023-12-17T00:56:01.289Z,1.50
2023-12-17T00:58:29.806Z,1.40
2023-12-17T01:00:58.247Z,1.40
2023-12-17T01:03:26.446Z,1.70
2023-12-17T01:05:54.662Z,1.40
2023-12-17T01:08:23.567Z,1.20
2023-12-17T01:10:51.653Z,1.10
2023-12-17T01:13:19.940Z,1.20
2023-12-17T01:15:48.023Z,1.10
2023-12-17T01:18:16.599Z,1.00
2023-12-17T01:20:45.239Z,1.10
2023-12-17T01:23:13.238Z,1.00
2023-12-17T01:25:41.806Z,1.00
2023-12-17T01:28:09.800Z,1.00
2023-12-17T01:30:38.360Z,1.20
2023-12-17T01:33:06.890Z,1.40
2023-12-17T01:38:02.473Z,1.10
2023-12-17T01:43:59.042Z,1.10
2023-12-17T01:48:56.940Z,0.90
2023-12-17T01:51:25.381Z,1.30
2023-12-17T01:53:55.120Z,1.10
2023-12-17T01:56:23.721Z,1.30
2023-12-17T01:58:52.359Z,0.70
2023-12-17T02:01:20.373Z,1.00
2023-12-17T02:03:48.243Z,0.80
2023-12-17T02:08:43.839Z,1.00
2023-12-17T02:11:11.460Z,1.00
2023-12-17T02:13:39.325Z,1.60
2023-12-17T02:19:44.881Z,1.20
2023-12-17T02:22:13.143Z,1.50
2023-12-17T02:24:42.023Z,1.30
2023-12-17T02:27:10.308Z,1.40
2023-12-17T02:29:40.102Z,1.60
2023-12-17T02:32:09.267Z,1.20
2023-12-17T02:34:37.341Z,0.90
2023-12-17T02:37:05.748Z,1.50
2023-12-17T02:39:34.050Z,0.80
2023-12-17T02:42:02.124Z,1.70
2023-12-17T02:44:30.334Z,1.10
2023-12-17T02:46:59.684Z,1.70
2023-12-17T02:49:28.817Z,0.60
2023-12-17T02:51:56.893Z,0.80
2023-12-17T02:56:53.752Z,0.20
2023-12-17T02:59:21.922Z,0.30
2023-12-17T03:01:49.745Z,0.30
2023-12-17T03:04:18.339Z,0.70
2023-12-17T03:06:46.938Z,0.80
2023-12-17T03:09:15.183Z,0.80
2023-12-17T03:11:44.524Z,0.60
2023-12-17T03:14:12.696Z,0.30
2023-12-17T03:16:44.398Z,0.40
2023-12-17T03:19:12.810Z,0.30
2023-12-17T03:21:42.224Z,0.50
2023-12-17T03:24:10.295Z,0.70
2023-12-17T03:26:39.433Z,0.80
2023-12-17T03:29:07.451Z,0.60
2023-12-17T03:31:35.427Z,0.50
2023-12-17T03:34:03.556Z,0.10
2023-12-17T03:36:32.165Z,0.10
2023-12-17T03:39:00.477Z,0.20
2023-12-17T03:41:29.941Z,0.20
2023-12-17T03:43:58.831Z,0.70
2023-12-17T03:46:28.004Z,0.90
2023-12-17T03:48:56.433Z,0.80
2023-12-17T03:51:24.618Z,1.00
2023-12-17T03:53:53.245Z,0.60
2023-12-17T03:56:24.411Z,0.40
2023-12-17T03:58:52.995Z,0.60
2023-12-17T04:01:21.056Z,0.50
2023-12-17T04:03:49.103Z,0.40
2023-12-17T04:06:17.463Z,0.30
2023-12-17T04:08:46.998Z,0.20
2023-12-17T04:11:15.093Z,0.20
2023-12-17T04:13:44.294Z,0.00
2023-12-17T04:16:12.603Z,0.10
2023-12-17T04:18:40.668Z,0.00
2023-12-17T04:21:08.958Z,0.20
2023-12-17T04:23:38.423Z,0.20
2023-12-17T04:26:07.017Z,0.20
2023-12-17T04:28:35.278Z,0.20
2023-12-17T04:31:03.408Z,0.20
2023-12-17T04:33:33.791Z,0.40
2023-12-17T04:36:02.586Z,0.20
2023-12-17T04:38:31.567Z,0.10
2023-12-17T04:40:59.728Z,0.30
2023-12-17T04:43:28.110Z,0.20
2023-12-17T04:45:57.146Z,0.20
2023-12-17T04:48:25.683Z,0.20
2023-12-17T04:50:53.699Z,0.20
2023-12-17T04:53:21.837Z,0.00
2023-12-17T04:55:50.017Z,0.20
2023-12-17T04:58:18.277Z,0.10
2023-12-17T05:00:46.417Z,0.20
2023-12-17T05:03:14.834Z,0.10
2023-12-17T05:05:43.323Z,0.10
2023-12-17T05:08:11.453Z,0.40
2023-12-17T05:10:40.076Z,0.00
2023-12-17T05:13:08.035Z,0.30
2023-12-17T05:19:03.928Z,0.30
2023-12-17T05:21:32.282Z,0.10
2023-12-17T05:24:00.294Z,0.10
2023-12-17T05:26:28.500Z,0.00
2023-12-17T05:28:56.793Z,0.10
2023-12-17T05:31:25.338Z,4.30
2023-12-17T05:33:54.457Z,1.90
2023-12-17T05:36:23.078Z,0.80
2023-12-17T05:38:52.797Z,0.50
2023-12-17T05:41:21.028Z,0.30
2023-12-17T05:43:49.628Z,0.20
2023-12-17T05:46:18.293Z,0.10
2023-12-17T05:48:46.469Z,0.20
2023-12-17T05:51:14.690Z,0.10
